sensor_id;sensor_type;location;lat;lon;timestamp;P1;durP1;ratioP1;P2;durP2;ratioP2
20970;SDS011;10644;48.834;10.088;2024-01-10T00:01:41;34.03;;;14.00;;
20970;SDS011;10644;48.834;10.088;2024-01-10T00:04:07;31.23;;;13.80;;
20970;SDS011;10644;48.834;10.088;2024-01-10T00:06:32;33.70;;;14.83;;
20970;SDS011;10644;48.834;10.088;2024-01-10T00:09:02;32.33;;;14.13;;
20970;SDS011;10644;48.834;10.088;2024-01-10T00:11:30;29.48;;;13.05;;
20970;SDS011;10644;48.834;10.088;2024-01-10T00:13:55;32.13;;;14.00;;
20970;SDS011;10644;48.834;10.088;2024-01-10T00:16:25;27.17;;;13.68;;
20970;SDS011;10644;48.834;10.088;2024-01-10T00:18:53;36.17;;;14.65;;
20970;SDS011;10644;48.834;10.088;2024-01-10T00:21:18;31.70;;;13.67;;
20970;SDS011;10644;48.834;10.088;2024-01-10T00:23:46;24.73;;;12.93;;
20970;SDS011;10644;48.834;10.088;2024-01-10T00:26:11;31.07;;;12.87;;
20970;SDS011;10644;48.834;10.088;2024-01-10T00:28:39;28.97;;;13.70;;
20970;SDS011;10644;48.834;10.088;2024-01-10T00:31:04;29.10;;;12.90;;
20970;SDS011;10644;48.834;10.088;2024-01-10T00:33:30;30.80;;;14.80;;
20970;SDS011;10644;48.834;10.088;2024-01-10T00:35:58;27.08;;;14.40;;
20970;SDS011;10644;48.834;10.088;2024-01-10T00:38:25;38.03;;;15.25;;
20970;SDS011;10644;48.834;10.088;2024-01-10T00:40:50;30.07;;;13.20;;
20970;SDS011;10644;48.834;10.088;2024-01-10T00:43:16;37.17;;;14.73;;
20970;SDS011;10644;48.834;10.088;2024-01-10T00:45:41;31.03;;;14.23;;
20970;SDS011;10644;48.834;10.088;2024-01-10T00:48:06;27.20;;;12.37;;
20970;SDS011;10644;48.834;10.088;2024-01-10T00:50:32;29.50;;;13.10;;
20970;SDS011;10644;48.834;10.088;2024-01-10T00:52:57;28.73;;;13.57;;
20970;SDS011;10644;48.834;10.088;2024-01-10T00:55:23;32.83;;;13.67;;
20970;SDS011;10644;48.834;10.088;2024-01-10T00:57:48;28.30;;;13.80;;
20970;SDS011;10644;48.834;10.088;2024-01-10T01:00:13;23.10;;;12.23;;
20970;SDS011;10644;48.834;10.088;2024-01-10T01:02:39;30.53;;;14.43;;
20970;SDS011;10644;48.834;10.088;2024-01-10T01:05:04;27.33;;;13.50;;
20970;SDS011;10644;48.834;10.088;2024-01-10T01:07:31;36.72;;;14.95;;
20970;SDS011;10644;48.834;10.088;2024-01-10T01:09:56;33.63;;;13.73;;
20970;SDS011;10644;48.834;10.088;2024-01-10T01:12:21;26.43;;;12.83;;
20970;SDS011;10644;48.834;10.088;2024-01-10T01:14:47;26.80;;;13.13;;
20970;SDS011;10644;48.834;10.088;2024-01-10T01:17:12;24.13;;;11.10;;
20970;SDS011;10644;48.834;10.088;2024-01-10T01:19:37;23.90;;;11.60;;
20970;SDS011;10644;48.834;10.088;2024-01-10T01:22:05;25.95;;;11.70;;
20970;SDS011;10644;48.834;10.088;2024-01-10T01:24:30;28.40;;;12.70;;
20970;SDS011;10644;48.834;10.088;2024-01-10T01:26:56;30.93;;;14.43;;
20970;SDS011;10644;48.834;10.088;2024-01-10T01:29:21;25.63;;;12.50;;
20970;SDS011;10644;48.834;10.088;2024-01-10T01:31:47;31.97;;;12.70;;
20970;SDS011;10644;48.834;10.088;2024-01-10T01:34:12;26.20;;;10.63;;
20970;SDS011;10644;48.834;10.088;2024-01-10T01:36:38;28.33;;;11.23;;
20970;SDS011;10644;48.834;10.088;2024-01-10T01:39:03;23.33;;;11.80;;
20970;SDS011;10644;48.834;10.088;2024-01-10T01:41:28;31.63;;;11.10;;
20970;SDS011;10644;48.834;10.088;2024-01-10T01:43:54;21.17;;;11.50;;
20970;SDS011;10644;48.834;10.088;2024-01-10T01:46:19;28.60;;;12.03;;
20970;SDS011;10644;48.834;10.088;2024-01-10T01:48:45;25.57;;;12.23;;
20970;SDS011;10644;48.834;10.088;2024-01-10T01:51:10;32.93;;;12.47;;
20970;SDS011;10644;48.834;10.088;2024-01-10T01:53:37;42.00;;;12.93;;
20970;SDS011;10644;48.834;10.088;2024-01-10T01:56:07;27.63;;;12.43;;
20970;SDS011;10644;48.834;10.088;2024-01-10T01:58:34;32.72;;;11.90;;
20970;SDS011;10644;48.834;10.088;2024-01-10T02:01:01;20.38;;;10.68;;
20970;SDS011;10644;48.834;10.088;2024-01-10T02:03:28;26.15;;;12.45;;
20970;SDS011;10644;48.834;10.088;2024-01-10T02:05:54;27.45;;;12.23;;
20970;SDS011;10644;48.834;10.088;2024-01-10T02:08:19;28.20;;;12.40;;
20970;SDS011;10644;48.834;10.088;2024-01-10T02:10:45;26.27;;;11.97;;
20970;SDS011;10644;48.834;10.088;2024-01-10T02:13:10;30.37;;;12.40;;
20970;SDS011;10644;48.834;10.088;2024-01-10T02:15:37;30.90;;;12.53;;
20970;SDS011;10644;48.834;10.088;2024-01-10T02:18:05;21.33;;;11.23;;
20970;SDS011;10644;48.834;10.088;2024-01-10T02:20:31;28.60;;;11.40;;
20970;SDS011;10644;48.834;10.088;2024-01-10T02:22:56;23.50;;;11.60;;
20970;SDS011;10644;48.834;10.088;2024-01-10T02:25:22;25.27;;;12.27;;
20970;SDS011;10644;48.834;10.088;2024-01-10T02:27:50;26.38;;;11.35;;
20970;SDS011;10644;48.834;10.088;2024-01-10T02:30:18;25.88;;;11.95;;
20970;SDS011;10644;48.834;10.088;2024-01-10T02:32:43;23.33;;;11.27;;
20970;SDS011;10644;48.834;10.088;2024-01-10T02:35:09;22.23;;;11.67;;
20970;SDS011;10644;48.834;10.088;2024-01-10T02:37:34;28.67;;;12.10;;
20970;SDS011;10644;48.834;10.088;2024-01-10T02:40:00;26.03;;;11.40;;
20970;SDS011;10644;48.834;10.088;2024-01-10T02:42:28;25.57;;;11.57;;
20970;SDS011;10644;48.834;10.088;2024-01-10T02:44:55;27.63;;;12.65;;
20970;SDS011;10644;48.834;10.088;2024-01-10T02:47:20;31.50;;;12.13;;
20970;SDS011;10644;48.834;10.088;2024-01-10T02:49:46;33.37;;;11.60;;
20970;SDS011;10644;48.834;10.088;2024-01-10T02:52:11;30.20;;;12.70;;
20970;SDS011;10644;48.834;10.088;2024-01-10T02:54:37;24.27;;;11.88;;
20970;SDS011;10644;48.834;10.088;2024-01-10T02:57:03;25.13;;;11.73;;
20970;SDS011;10644;48.834;10.088;2024-01-10T02:59:28;27.97;;;12.87;;
20970;SDS011;10644;48.834;10.088;2024-01-10T03:01:53;25.30;;;12.50;;
20970;SDS011;10644;48.834;10.088;2024-01-10T03:04:19;28.57;;;12.70;;
20970;SDS011;10644;48.834;10.088;2024-01-10T03:06:44;26.30;;;12.33;;
20970;SDS011;10644;48.834;10.088;2024-01-10T03:09:10;22.13;;;10.73;;
20970;SDS011;10644;48.834;10.088;2024-01-10T03:11:35;26.67;;;12.50;;
20970;SDS011;10644;48.834;10.088;2024-01-10T03:14:08;29.73;;;13.20;;
20970;SDS011;10644;48.834;10.088;2024-01-10T03:16:35;28.45;;;12.15;;
20970;SDS011;10644;48.834;10.088;2024-01-10T03:19:01;24.70;;;11.33;;
20970;SDS011;10644;48.834;10.088;2024-01-10T03:21:26;31.37;;;12.70;;
20970;SDS011;10644;48.834;10.088;2024-01-10T03:23:54;27.97;;;13.70;;
20970;SDS011;10644;48.834;10.088;2024-01-10T03:26:23;36.75;;;12.30;;
20970;SDS011;10644;48.834;10.088;2024-01-10T03:28:49;30.80;;;13.00;;
20970;SDS011;10644;48.834;10.088;2024-01-10T03:31:14;41.60;;;15.57;;
20970;SDS011;10644;48.834;10.088;2024-01-10T03:33:40;27.73;;;12.33;;
20970;SDS011;10644;48.834;10.088;2024-01-10T03:36:06;38.47;;;16.47;;
20970;SDS011;10644;48.834;10.088;2024-01-10T03:38:33;53.35;;;23.60;;
20970;SDS011;10644;48.834;10.088;2024-01-10T03:40:59;23.83;;;10.60;;
20970;SDS011;10644;48.834;10.088;2024-01-10T03:43:26;30.42;;;12.40;;
20970;SDS011;10644;48.834;10.088;2024-01-10T03:45:51;33.60;;;14.93;;
20970;SDS011;10644;48.834;10.088;2024-01-10T03:48:17;32.23;;;13.20;;
20970;SDS011;10644;48.834;10.088;2024-01-10T03:50:42;27.70;;;13.63;;
20970;SDS011;10644;48.834;10.088;2024-01-10T03:53:07;28.00;;;13.57;;
20970;SDS011;10644;48.834;10.088;2024-01-10T03:55:33;26.33;;;11.73;;
20970;SDS011;10644;48.834;10.088;2024-01-10T03:57:58;27.67;;;12.90;;
20970;SDS011;10644;48.834;10.088;2024-01-10T04:00:24;29.97;;;13.50;;
20970;SDS011;10644;48.834;10.088;2024-01-10T04:02:52;27.92;;;12.15;;
20970;SDS011;10644;48.834;10.088;2024-01-10T04:05:18;32.40;;;13.82;;
20970;SDS011;10644;48.834;10.088;2024-01-10T04:07:45;33.67;;;13.48;;
20970;SDS011;10644;48.834;10.088;2024-01-10T04:10:10;27.23;;;12.37;;
20970;SDS011;10644;48.834;10.088;2024-01-10T04:12:39;33.58;;;13.25;;
20970;SDS011;10644;48.834;10.088;2024-01-10T04:15:05;27.23;;;12.25;;
20970;SDS011;10644;48.834;10.088;2024-01-10T04:17:31;30.05;;;13.27;;
20970;SDS011;10644;48.834;10.088;2024-01-10T04:19:58;30.92;;;14.80;;
20970;SDS011;10644;48.834;10.088;2024-01-10T04:22:24;32.47;;;14.85;;
20970;SDS011;10644;48.834;10.088;2024-01-10T04:24:50;33.10;;;15.07;;
20970;SDS011;10644;48.834;10.088;2024-01-10T04:27:15;35.00;;;14.17;;
20970;SDS011;10644;48.834;10.088;2024-01-10T04:29:40;30.93;;;13.10;;
20970;SDS011;10644;48.834;10.088;2024-01-10T04:32:06;31.53;;;13.70;;
20970;SDS011;10644;48.834;10.088;2024-01-10T04:34:32;26.47;;;12.80;;
20970;SDS011;10644;48.834;10.088;2024-01-10T04:36:59;29.33;;;12.60;;
20970;SDS011;10644;48.834;10.088;2024-01-10T04:39:25;28.30;;;12.27;;
20970;SDS011;10644;48.834;10.088;2024-01-10T04:41:50;31.07;;;13.00;;
20970;SDS011;10644;48.834;10.088;2024-01-10T04:44:15;26.60;;;13.37;;
20970;SDS011;10644;48.834;10.088;2024-01-10T04:46:41;29.37;;;14.83;;
20970;SDS011;10644;48.834;10.088;2024-01-10T04:49:07;30.53;;;14.70;;
20970;SDS011;10644;48.834;10.088;2024-01-10T04:51:32;32.90;;;14.70;;
20970;SDS011;10644;48.834;10.088;2024-01-10T04:53:57;28.93;;;13.83;;
20970;SDS011;10644;48.834;10.088;2024-01-10T04:56:23;30.53;;;13.77;;
20970;SDS011;10644;48.834;10.088;2024-01-10T04:58:48;30.73;;;14.00;;
20970;SDS011;10644;48.834;10.088;2024-01-10T05:01:14;33.43;;;15.03;;
20970;SDS011;10644;48.834;10.088;2024-01-10T05:03:39;35.43;;;15.23;;
20970;SDS011;10644;48.834;10.088;2024-01-10T05:06:04;29.20;;;14.30;;
20970;SDS011;10644;48.834;10.088;2024-01-10T05:08:30;34.47;;;14.70;;
20970;SDS011;10644;48.834;10.088;2024-01-10T05:10:58;36.22;;;15.27;;
20970;SDS011;10644;48.834;10.088;2024-01-10T05:13:23;28.73;;;14.47;;
20970;SDS011;10644;48.834;10.088;2024-01-10T05:15:48;32.27;;;13.77;;
20970;SDS011;10644;48.834;10.088;2024-01-10T05:18:14;31.10;;;14.50;;
20970;SDS011;10644;48.834;10.088;2024-01-10T05:20:43;18.77;;;9.32;;
20970;SDS011;10644;48.834;10.088;2024-01-10T05:23:09;38.23;;;14.97;;
20970;SDS011;10644;48.834;10.088;2024-01-10T05:25:34;34.30;;;14.70;;
20970;SDS011;10644;48.834;10.088;2024-01-10T05:27:59;37.03;;;16.03;;
20970;SDS011;10644;48.834;10.088;2024-01-10T05:30:25;36.73;;;15.80;;
20970;SDS011;10644;48.834;10.088;2024-01-10T05:32:50;35.40;;;15.47;;
20970;SDS011;10644;48.834;10.088;2024-01-10T05:35:16;35.07;;;14.43;;
20970;SDS011;10644;48.834;10.088;2024-01-10T05:37:41;35.63;;;14.80;;
20970;SDS011;10644;48.834;10.088;2024-01-10T05:40:06;34.40;;;16.00;;
20970;SDS011;10644;48.834;10.088;2024-01-10T05:42:32;40.33;;;17.20;;
20970;SDS011;10644;48.834;10.088;2024-01-10T05:44:58;34.43;;;14.53;;
20970;SDS011;10644;48.834;10.088;2024-01-10T05:47:24;34.58;;;15.00;;
20970;SDS011;10644;48.834;10.088;2024-01-10T05:49:51;34.72;;;16.08;;
20970;SDS011;10644;48.834;10.088;2024-01-10T05:52:18;31.95;;;15.10;;
20970;SDS011;10644;48.834;10.088;2024-01-10T05:54:47;32.35;;;14.00;;
20970;SDS011;10644;48.834;10.088;2024-01-10T05:57:13;35.55;;;15.80;;
20970;SDS011;10644;48.834;10.088;2024-01-10T05:59:39;45.23;;;15.83;;
20970;SDS011;10644;48.834;10.088;2024-01-10T06:02:04;36.10;;;17.07;;
20970;SDS011;10644;48.834;10.088;2024-01-10T06:04:29;34.00;;;16.40;;
20970;SDS011;10644;48.834;10.088;2024-01-10T06:06:59;37.22;;;17.05;;
20970;SDS011;10644;48.834;10.088;2024-01-10T06:09:25;37.90;;;14.80;;
20970;SDS011;10644;48.834;10.088;2024-01-10T06:11:50;38.57;;;15.97;;
20970;SDS011;10644;48.834;10.088;2024-01-10T06:14:16;35.93;;;16.10;;
20970;SDS011;10644;48.834;10.088;2024-01-10T06:16:42;36.67;;;16.10;;
20970;SDS011;10644;48.834;10.088;2024-01-10T06:19:08;32.80;;;15.52;;
20970;SDS011;10644;48.834;10.088;2024-01-10T06:21:35;36.38;;;17.38;;
20970;SDS011;10644;48.834;10.088;2024-01-10T06:24:00;34.50;;;15.73;;
20970;SDS011;10644;48.834;10.088;2024-01-10T06:26:28;34.15;;;16.13;;
20970;SDS011;10644;48.834;10.088;2024-01-10T06:28:54;39.97;;;17.70;;
20970;SDS011;10644;48.834;10.088;2024-01-10T06:31:22;35.63;;;17.75;;
20970;SDS011;10644;48.834;10.088;2024-01-10T06:33:48;34.17;;;17.15;;
20970;SDS011;10644;48.834;10.088;2024-01-10T06:36:14;35.83;;;17.80;;
20970;SDS011;10644;48.834;10.088;2024-01-10T06:38:39;34.73;;;16.20;;
20970;SDS011;10644;48.834;10.088;2024-01-10T06:41:08;38.97;;;16.83;;
20970;SDS011;10644;48.834;10.088;2024-01-10T06:43:34;38.58;;;16.33;;
20970;SDS011;10644;48.834;10.088;2024-01-10T06:45:59;36.30;;;16.03;;
20970;SDS011;10644;48.834;10.088;2024-01-10T06:48:25;41.73;;;17.33;;
20970;SDS011;10644;48.834;10.088;2024-01-10T06:50:50;39.50;;;18.20;;
20970;SDS011;10644;48.834;10.088;2024-01-10T06:53:15;46.93;;;18.70;;
20970;SDS011;10644;48.834;10.088;2024-01-10T06:55:41;32.97;;;11.87;;
20970;SDS011;10644;48.834;10.088;2024-01-10T06:58:06;40.60;;;18.20;;
20970;SDS011;10644;48.834;10.088;2024-01-10T07:00:31;36.80;;;15.60;;
20970;SDS011;10644;48.834;10.088;2024-01-10T07:02:57;37.03;;;16.07;;
20970;SDS011;10644;48.834;10.088;2024-01-10T07:05:28;25.17;;;8.65;;
20970;SDS011;10644;48.834;10.088;2024-01-10T07:07:53;43.73;;;17.70;;
20970;SDS011;10644;48.834;10.088;2024-01-10T07:10:19;43.23;;;18.43;;
20970;SDS011;10644;48.834;10.088;2024-01-10T07:12:44;46.17;;;18.80;;
20970;SDS011;10644;48.834;10.088;2024-01-10T07:15:09;54.23;;;17.93;;
20970;SDS011;10644;48.834;10.088;2024-01-10T07:17:36;67.78;;;20.42;;
20970;SDS011;10644;48.834;10.088;2024-01-10T07:20:02;55.60;;;19.57;;
20970;SDS011;10644;48.834;10.088;2024-01-10T07:22:28;58.08;;;17.67;;
20970;SDS011;10644;48.834;10.088;2024-01-10T07:24:53;51.03;;;18.03;;
20970;SDS011;10644;48.834;10.088;2024-01-10T07:27:22;58.83;;;19.00;;
20970;SDS011;10644;48.834;10.088;2024-01-10T07:29:47;57.53;;;17.70;;
20970;SDS011;10644;48.834;10.088;2024-01-10T07:32:12;59.33;;;18.90;;
20970;SDS011;10644;48.834;10.088;2024-01-10T07:34:38;44.00;;;18.37;;
20970;SDS011;10644;48.834;10.088;2024-01-10T07:37:04;44.70;;;17.63;;
20970;SDS011;10644;48.834;10.088;2024-01-10T07:39:31;58.00;;;19.58;;
20970;SDS011;10644;48.834;10.088;2024-01-10T07:42:00;56.38;;;16.02;;
20970;SDS011;10644;48.834;10.088;2024-01-10T07:44:27;54.50;;;20.13;;
20970;SDS011;10644;48.834;10.088;2024-01-10T07:46:53;55.50;;;20.50;;
20970;SDS011;10644;48.834;10.088;2024-01-10T07:49:20;54.83;;;20.52;;
20970;SDS011;10644;48.834;10.088;2024-01-10T07:51:48;58.15;;;21.00;;
20970;SDS011;10644;48.834;10.088;2024-01-10T07:54:14;61.70;;;22.50;;
20970;SDS011;10644;48.834;10.088;2024-01-10T07:56:39;49.60;;;19.03;;
20970;SDS011;10644;48.834;10.088;2024-01-10T07:59:04;67.20;;;21.90;;
20970;SDS011;10644;48.834;10.088;2024-01-10T08:01:30;52.43;;;18.17;;
20970;SDS011;10644;48.834;10.088;2024-01-10T08:03:55;57.40;;;20.17;;
20970;SDS011;10644;48.834;10.088;2024-01-10T08:06:21;46.27;;;13.60;;
20970;SDS011;10644;48.834;10.088;2024-01-10T08:08:46;66.85;;;21.17;;
20970;SDS011;10644;48.834;10.088;2024-01-10T08:11:11;51.43;;;20.60;;
20970;SDS011;10644;48.834;10.088;2024-01-10T08:13:40;52.45;;;20.15;;
20970;SDS011;10644;48.834;10.088;2024-01-10T08:16:05;70.07;;;22.93;;
20970;SDS011;10644;48.834;10.088;2024-01-10T08:18:33;49.08;;;19.35;;
20970;SDS011;10644;48.834;10.088;2024-01-10T08:20:59;51.27;;;20.87;;
20970;SDS011;10644;48.834;10.088;2024-01-10T08:23:24;55.50;;;20.00;;
20970;SDS011;10644;48.834;10.088;2024-01-10T08:25:52;57.67;;;21.13;;
20970;SDS011;10644;48.834;10.088;2024-01-10T08:28:18;53.23;;;22.70;;
20970;SDS011;10644;48.834;10.088;2024-01-10T08:30:43;50.60;;;22.33;;
20970;SDS011;10644;48.834;10.088;2024-01-10T08:33:09;50.50;;;21.23;;
20970;SDS011;10644;48.834;10.088;2024-01-10T08:35:34;43.33;;;20.43;;
20970;SDS011;10644;48.834;10.088;2024-01-10T08:37:59;61.27;;;24.60;;
20970;SDS011;10644;48.834;10.088;2024-01-10T08:40:25;37.73;;;15.20;;
20970;SDS011;10644;48.834;10.088;2024-01-10T08:42:51;43.83;;;14.90;;
20970;SDS011;10644;48.834;10.088;2024-01-10T08:45:17;51.78;;;22.63;;
20970;SDS011;10644;48.834;10.088;2024-01-10T08:47:42;62.03;;;21.20;;
20970;SDS011;10644;48.834;10.088;2024-01-10T08:50:10;42.20;;;17.13;;
20970;SDS011;10644;48.834;10.088;2024-01-10T08:52:35;33.92;;;12.30;;
20970;SDS011;10644;48.834;10.088;2024-01-10T08:55:07;52.80;;;19.65;;
20970;SDS011;10644;48.834;10.088;2024-01-10T08:57:33;46.95;;;21.05;;
20970;SDS011;10644;48.834;10.088;2024-01-10T08:59:58;58.47;;;22.27;;
20970;SDS011;10644;48.834;10.088;2024-01-10T09:02:25;55.33;;;21.23;;
20970;SDS011;10644;48.834;10.088;2024-01-10T09:04:52;56.03;;;21.88;;
20970;SDS011;10644;48.834;10.088;2024-01-10T09:07:18;44.97;;;17.60;;
20970;SDS011;10644;48.834;10.088;2024-01-10T09:09:43;51.83;;;22.13;;
20970;SDS011;10644;48.834;10.088;2024-01-10T09:12:08;59.37;;;24.43;;
20970;SDS011;10644;48.834;10.088;2024-01-10T09:14:34;61.60;;;23.93;;
20970;SDS011;10644;48.834;10.088;2024-01-10T09:16:59;58.13;;;23.17;;
20970;SDS011;10644;48.834;10.088;2024-01-10T09:19:29;61.22;;;23.77;;
20970;SDS011;10644;48.834;10.088;2024-01-10T09:21:55;53.92;;;22.50;;
20970;SDS011;10644;48.834;10.088;2024-01-10T09:24:22;47.78;;;20.23;;
20970;SDS011;10644;48.834;10.088;2024-01-10T09:26:50;47.47;;;20.27;;
20970;SDS011;10644;48.834;10.088;2024-01-10T09:29:16;49.37;;;15.80;;
20970;SDS011;10644;48.834;10.088;2024-01-10T09:31:41;61.30;;;22.77;;
20970;SDS011;10644;48.834;10.088;2024-01-10T09:34:07;61.43;;;28.00;;
20970;SDS011;10644;48.834;10.088;2024-01-10T09:36:32;48.93;;;22.80;;
20970;SDS011;10644;48.834;10.088;2024-01-10T09:38:57;55.23;;;23.17;;
20970;SDS011;10644;48.834;10.088;2024-01-10T09:41:23;49.03;;;20.23;;
20970;SDS011;10644;48.834;10.088;2024-01-10T09:43:53;52.72;;;22.80;;
20970;SDS011;10644;48.834;10.088;2024-01-10T09:46:18;55.67;;;20.50;;
20970;SDS011;10644;48.834;10.088;2024-01-10T09:48:44;41.40;;;19.00;;
20970;SDS011;10644;48.834;10.088;2024-01-10T09:51:12;105.43;;;38.08;;
20970;SDS011;10644;48.834;10.088;2024-01-10T09:53:38;80.50;;;29.35;;
20970;SDS011;10644;48.834;10.088;2024-01-10T09:56:09;82.38;;;30.52;;
20970;SDS011;10644;48.834;10.088;2024-01-10T09:58:35;62.33;;;27.10;;
20970;SDS011;10644;48.834;10.088;2024-01-10T10:01:05;62.83;;;26.05;;
20970;SDS011;10644;48.834;10.088;2024-01-10T10:03:32;57.33;;;24.30;;
20970;SDS011;10644;48.834;10.088;2024-01-10T10:06:03;50.33;;;21.80;;
20970;SDS011;10644;48.834;10.088;2024-01-10T10:08:29;55.95;;;23.58;;
20970;SDS011;10644;48.834;10.088;2024-01-10T10:10:55;55.80;;;24.70;;
20970;SDS011;10644;48.834;10.088;2024-01-10T10:13:24;52.47;;;21.43;;
20970;SDS011;10644;48.834;10.088;2024-01-10T10:16:00;52.35;;;22.75;;
20970;SDS011;10644;48.834;10.088;2024-01-10T10:18:28;61.15;;;24.63;;
20970;SDS011;10644;48.834;10.088;2024-01-10T10:23:39;56.85;;;26.40;;
20970;SDS011;10644;48.834;10.088;2024-01-10T10:26:13;57.78;;;25.90;;
20970;SDS011;10644;48.834;10.088;2024-01-10T10:28:44;47.63;;;22.48;;
20970;SDS011;10644;48.834;10.088;2024-01-10T10:31:12;51.60;;;23.05;;
20970;SDS011;10644;48.834;10.088;2024-01-10T10:33:38;44.43;;;20.80;;
20970;SDS011;10644;48.834;10.088;2024-01-10T10:36:05;49.58;;;23.17;;
20970;SDS011;10644;48.834;10.088;2024-01-10T10:38:31;46.00;;;21.87;;
20970;SDS011;10644;48.834;10.088;2024-01-10T10:40:58;46.08;;;23.00;;
20970;SDS011;10644;48.834;10.088;2024-01-10T10:43:24;43.80;;;21.00;;
20970;SDS011;10644;48.834;10.088;2024-01-10T10:45:50;44.00;;;20.13;;
20970;SDS011;10644;48.834;10.088;2024-01-10T10:48:19;43.92;;;22.40;;
20970;SDS011;10644;48.834;10.088;2024-01-10T10:51:05;41.00;;;21.85;;
20970;SDS011;10644;48.834;10.088;2024-01-10T10:53:37;45.58;;;23.13;;
20970;SDS011;10644;48.834;10.088;2024-01-10T10:56:05;47.83;;;23.75;;
20970;SDS011;10644;48.834;10.088;2024-01-10T10:58:41;41.80;;;20.20;;
20970;SDS011;10644;48.834;10.088;2024-01-10T11:01:13;45.95;;;23.60;;
20970;SDS011;10644;48.834;10.088;2024-01-10T11:03:40;43.95;;;20.60;;
20970;SDS011;10644;48.834;10.088;2024-01-10T11:06:07;40.25;;;20.00;;
20970;SDS011;10644;48.834;10.088;2024-01-10T11:08:46;40.80;;;19.13;;
20970;SDS011;10644;48.834;10.088;2024-01-10T11:14:12;43.72;;;22.63;;
20970;SDS011;10644;48.834;10.088;2024-01-10T11:22:31;52.30;;;24.60;;
20970;SDS011;10644;48.834;10.088;2024-01-10T11:25:18;43.42;;;22.15;;
20970;SDS011;10644;48.834;10.088;2024-01-10T11:27:44;42.60;;;22.93;;
20970;SDS011;10644;48.834;10.088;2024-01-10T11:30:12;46.00;;;22.98;;
20970;SDS011;10644;48.834;10.088;2024-01-10T11:32:37;44.93;;;21.90;;
20970;SDS011;10644;48.834;10.088;2024-01-10T11:35:05;44.85;;;22.15;;
20970;SDS011;10644;48.834;10.088;2024-01-10T11:37:44;45.65;;;23.13;;
20970;SDS011;10644;48.834;10.088;2024-01-10T11:40:13;48.10;;;23.25;;
20970;SDS011;10644;48.834;10.088;2024-01-10T11:42:42;46.88;;;23.20;;
20970;SDS011;10644;48.834;10.088;2024-01-10T11:45:08;44.22;;;21.75;;
20970;SDS011;10644;48.834;10.088;2024-01-10T11:47:34;45.70;;;21.17;;
20970;SDS011;10644;48.834;10.088;2024-01-10T11:50:01;45.47;;;23.63;;
20970;SDS011;10644;48.834;10.088;2024-01-10T11:52:34;46.33;;;22.98;;
20970;SDS011;10644;48.834;10.088;2024-01-10T11:55:01;44.33;;;22.00;;
20970;SDS011;10644;48.834;10.088;2024-01-10T11:57:32;45.17;;;23.60;;
20970;SDS011;10644;48.834;10.088;2024-01-10T11:59:57;51.50;;;26.07;;
20970;SDS011;10644;48.834;10.088;2024-01-10T12:02:28;43.22;;;22.33;;
20970;SDS011;10644;48.834;10.088;2024-01-10T12:04:54;40.35;;;21.77;;
20970;SDS011;10644;48.834;10.088;2024-01-10T12:07:20;44.30;;;23.47;;
20970;SDS011;10644;48.834;10.088;2024-01-10T12:09:46;46.38;;;22.67;;
20970;SDS011;10644;48.834;10.088;2024-01-10T12:12:12;46.03;;;21.42;;
20970;SDS011;10644;48.834;10.088;2024-01-10T12:14:39;44.92;;;22.85;;
20970;SDS011;10644;48.834;10.088;2024-01-10T12:17:05;45.28;;;23.50;;
20970;SDS011;10644;48.834;10.088;2024-01-10T12:19:33;49.00;;;24.83;;
20970;SDS011;10644;48.834;10.088;2024-01-10T12:21:59;52.72;;;24.00;;
20970;SDS011;10644;48.834;10.088;2024-01-10T12:24:26;41.27;;;21.60;;
20970;SDS011;10644;48.834;10.088;2024-01-10T12:26:55;45.17;;;21.30;;
20970;SDS011;10644;48.834;10.088;2024-01-10T12:29:21;43.10;;;21.90;;
20970;SDS011;10644;48.834;10.088;2024-01-10T12:31:47;42.80;;;21.13;;
20970;SDS011;10644;48.834;10.088;2024-01-10T12:34:13;42.53;;;22.30;;
20970;SDS011;10644;48.834;10.088;2024-01-10T12:36:40;43.75;;;21.83;;
20970;SDS011;10644;48.834;10.088;2024-01-10T12:39:06;63.80;;;33.78;;
20970;SDS011;10644;48.834;10.088;2024-01-10T12:41:33;43.40;;;24.23;;
20970;SDS011;10644;48.834;10.088;2024-01-10T12:44:00;49.30;;;25.90;;
20970;SDS011;10644;48.834;10.088;2024-01-10T12:46:31;51.53;;;25.55;;
20970;SDS011;10644;48.834;10.088;2024-01-10T12:49:04;48.05;;;24.60;;
20970;SDS011;10644;48.834;10.088;2024-01-10T12:51:32;45.33;;;22.35;;
20970;SDS011;10644;48.834;10.088;2024-01-10T12:53:59;44.75;;;23.23;;
20970;SDS011;10644;48.834;10.088;2024-01-10T12:56:28;42.22;;;20.85;;
20970;SDS011;10644;48.834;10.088;2024-01-10T12:58:55;45.20;;;25.23;;
20970;SDS011;10644;48.834;10.088;2024-01-10T13:01:20;41.13;;;22.20;;
20970;SDS011;10644;48.834;10.088;2024-01-10T13:03:47;45.97;;;22.17;;
20970;SDS011;10644;48.834;10.088;2024-01-10T13:06:13;43.03;;;23.42;;
20970;SDS011;10644;48.834;10.088;2024-01-10T13:08:39;44.40;;;23.70;;
20970;SDS011;10644;48.834;10.088;2024-01-10T13:11:04;43.90;;;23.77;;
20970;SDS011;10644;48.834;10.088;2024-01-10T13:13:33;43.15;;;23.33;;
20970;SDS011;10644;48.834;10.088;2024-01-10T13:15:59;45.70;;;22.95;;
20970;SDS011;10644;48.834;10.088;2024-01-10T13:18:25;47.80;;;23.73;;
20970;SDS011;10644;48.834;10.088;2024-01-10T13:20:53;45.92;;;22.23;;
20970;SDS011;10644;48.834;10.088;2024-01-10T13:23:19;47.53;;;23.33;;
20970;SDS011;10644;48.834;10.088;2024-01-10T13:25:48;48.83;;;23.95;;
20970;SDS011;10644;48.834;10.088;2024-01-10T13:28:15;46.72;;;22.35;;
20970;SDS011;10644;48.834;10.088;2024-01-10T13:30:42;48.75;;;23.05;;
20970;SDS011;10644;48.834;10.088;2024-01-10T13:33:09;47.42;;;23.17;;
20970;SDS011;10644;48.834;10.088;2024-01-10T13:35:35;47.73;;;23.27;;
20970;SDS011;10644;48.834;10.088;2024-01-10T13:38:01;67.80;;;33.95;;
20970;SDS011;10644;48.834;10.088;2024-01-10T13:40:26;46.80;;;21.17;;
20970;SDS011;10644;48.834;10.088;2024-01-10T13:42:53;69.90;;;35.83;;
20970;SDS011;10644;48.834;10.088;2024-01-10T13:45:18;51.10;;;24.57;;
20970;SDS011;10644;48.834;10.088;2024-01-10T13:47:45;59.07;;;25.37;;
20970;SDS011;10644;48.834;10.088;2024-01-10T13:50:11;204.10;;;43.23;;
20970;SDS011;10644;48.834;10.088;2024-01-10T13:52:37;68.17;;;28.90;;
20970;SDS011;10644;48.834;10.088;2024-01-10T13:55:02;75.00;;;32.27;;
20970;SDS011;10644;48.834;10.088;2024-01-10T13:57:31;73.20;;;29.43;;
20970;SDS011;10644;48.834;10.088;2024-01-10T14:00:01;54.97;;;26.17;;
20970;SDS011;10644;48.834;10.088;2024-01-10T14:02:32;56.03;;;26.17;;
20970;SDS011;10644;48.834;10.088;2024-01-10T14:04:57;58.10;;;25.97;;
20970;SDS011;10644;48.834;10.088;2024-01-10T14:07:23;59.37;;;26.13;;
20970;SDS011;10644;48.834;10.088;2024-01-10T14:09:49;54.85;;;26.10;;
20970;SDS011;10644;48.834;10.088;2024-01-10T14:12:15;63.20;;;26.43;;
20970;SDS011;10644;48.834;10.088;2024-01-10T14:14:40;58.63;;;28.10;;
20970;SDS011;10644;48.834;10.088;2024-01-10T14:17:06;65.70;;;27.67;;